createdAt,value
2018-03-23T00:05:03.476Z,0
2018-03-23T00:15:17.277Z,0
2018-03-23T00:25:31.951Z,0
2018-03-23T00:35:47.258Z,0
2018-03-23T00:46:02.878Z,0
2018-03-23T00:56:17.425Z,0
2018-03-23T01:06:32.160Z,0
2018-03-23T01:16:47.811Z,0
2018-03-23T01:27:01.520Z,0
2018-03-23T01:37:16.338Z,0
2018-03-23T01:47:31.716Z,0
2018-03-23T01:57:46.928Z,0
2018-03-23T02:08:01.811Z,0
2018-03-23T02:18:15.954Z,0
2018-03-23T02:28:30.925Z,0
2018-03-23T02:38:45.426Z,0
2018-03-23T02:48:59.442Z,0
2018-03-23T02:59:13.190Z,0
2018-03-23T03:09:27.212Z,0
2018-03-23T03:19:41.049Z,0
2018-03-23T03:29:55.061Z,0
2018-03-23T03:40:10.262Z,0
2018-03-23T03:50:25.602Z,0
2018-03-23T04:00:40.509Z,0
2018-03-23T04:10:54.961Z,0
2018-03-23T04:21:09.154Z,0
2018-03-23T04:31:23.685Z,0
2018-03-23T04:41:37.936Z,0
2018-03-23T04:51:52.932Z,0
2018-03-23T05:02:07.490Z,0
2018-03-23T05:12:22.946Z,16
2018-03-23T05:22:37.641Z,36
2018-03-23T05:32:51.390Z,92
2018-03-23T05:43:05.360Z,152
2018-03-23T05:53:20.107Z,240
2018-03-23T06:03:34.359Z,432
2018-03-23T06:13:48.963Z,656
2018-03-23T06:24:03.215Z,812
2018-03-23T06:34:16.981Z,972
2018-03-23T06:44:30.756Z,1032
2018-03-23T06:54:44.592Z,1228
2018-03-23T07:04:58.545Z,1584
2018-03-23T07:15:13.444Z,1364
2018-03-23T07:25:28.366Z,2164
2018-03-23T07:35:42.271Z,2332
2018-03-23T07:45:56.884Z,3644
2018-03-23T07:56:11.253Z,5112
2018-03-23T08:06:26.798Z,6376
2018-03-23T08:16:41.142Z,6064
2018-03-23T08:26:56.054Z,16120
2018-03-23T08:37:10.689Z,15528
2018-03-23T08:47:25.203Z,19584
2018-03-23T08:57:40.610Z,8808
2018-03-23T09:07:55.551Z,13640
2018-03-23T09:18:10.491Z,11860
2018-03-23T09:28:25.866Z,16960
2018-03-23T09:38:41.021Z,17920
2018-03-23T09:48:55.876Z,12688
2018-03-23T09:59:11.561Z,26496
2018-03-23T10:09:25.393Z,23648
2018-03-23T10:19:41.312Z,28608
2018-03-23T10:29:55.526Z,33440
2018-03-23T10:40:10.699Z,20864
2018-03-23T10:50:25.685Z,24480
2018-03-23T11:00:40.886Z,49440
2018-03-23T11:10:55.625Z,43392
2018-03-23T11:21:09.265Z,33824
2018-03-23T11:31:23.484Z,24576
2018-03-23T11:41:37.479Z,22144
2018-03-23T11:51:52.877Z,23424
2018-03-23T12:02:08.414Z,23648
2018-03-23T12:12:22.814Z,20768
2018-03-23T12:22:37.715Z,20128
2018-03-23T12:32:53.351Z,15708
2018-03-23T12:43:08.393Z,15220
2018-03-23T12:53:22.944Z,11632
2018-03-23T13:03:38.316Z,7884
2018-03-23T13:13:52.312Z,11396
2018-03-23T13:24:07.984Z,13404
2018-03-23T13:34:21.889Z,9992
2018-03-23T13:44:37.302Z,10640
2018-03-23T13:54:52.856Z,12536
2018-03-23T14:05:07.079Z,8156
2018-03-23T14:15:21.903Z,7920
2018-03-23T14:25:36.553Z,6304
2018-03-23T14:35:52.022Z,6508
2018-03-23T14:46:06.461Z,7908
2018-03-23T14:56:20.966Z,9032
2018-03-23T15:06:35.728Z,9188
2018-03-23T15:16:50.175Z,8388
2018-03-23T15:27:03.931Z,11324
2018-03-23T15:37:17.893Z,7904
2018-03-23T15:47:32.429Z,5048
2018-03-23T15:57:46.788Z,3728
2018-03-23T16:08:00.782Z,3268
2018-03-23T16:18:16.090Z,2628
2018-03-23T16:28:31.400Z,2360
2018-03-23T16:38:46.515Z,2316
2018-03-23T16:49:02.048Z,2368
2018-03-23T16:59:17.651Z,1424
2018-03-23T17:09:32.942Z,1388
2018-03-23T17:19:47.184Z,756
2018-03-23T17:30:02.785Z,548
2018-03-23T17:40:18.423Z,328
2018-03-23T17:50:32.387Z,120
2018-03-23T18:00:46.485Z,32
2018-03-23T18:11:01.341Z,8
2018-03-23T18:21:15.505Z,0
2018-03-23T18:31:29.215Z,0
2018-03-23T18:41:43.204Z,0
2018-03-23T18:51:58.931Z,0
2018-03-23T19:02:12.918Z,0
2018-03-23T19:12:27.291Z,0
2018-03-23T19:22:41.725Z,0
2018-03-23T19:32:56.433Z,0
2018-03-23T19:43:12.017Z,0
2018-03-23T19:53:27.536Z,0
2018-03-23T20:03:42.417Z,0
2018-03-23T20:13:57.458Z,0
2018-03-23T20:24:12.107Z,0
2018-03-23T20:34:25.910Z,0
2018-03-23T20:44:40.493Z,0
2018-03-23T20:54:55.374Z,0
2018-03-23T21:05:11.047Z,0
2018-03-23T21:15:25.359Z,0
2018-03-23T21:25:40.792Z,0
2018-03-23T21:35:56.155Z,0
2018-03-23T21:46:10.877Z,0
2018-03-23T21:56:24.550Z,0
2018-03-23T22:06:38.241Z,0
2018-03-23T22:16:52.319Z,0
2018-03-23T22:27:06.052Z,0
2018-03-23T22:37:21.905Z,0
2018-03-23T22:47:36.489Z,0
2018-03-23T22:57:51.380Z,0
2018-03-23T23:08:06.602Z,0
2018-03-23T23:18:22.158Z,0
2018-03-23T23:28:36.025Z,0
2018-03-23T23:38:51.009Z,0
2018-03-23T23:49:06.441Z,0
2018-03-23T23:59:21.165Z,0
